createdAt,value
2022-11-24T00:01:52.371Z,100.00
2022-11-24T00:04:18.941Z,100.00
2022-11-24T00:06:45.407Z,100.00
2022-11-24T00:09:12.010Z,100.00
2022-11-24T00:11:38.545Z,100.00
2022-11-24T00:14:06.283Z,100.00
2022-11-24T00:16:34.065Z,100.00
2022-11-24T00:19:01.912Z,100.00
2022-11-24T00:21:29.508Z,100.00
2022-11-24T00:23:56.394Z,100.00
2022-11-24T00:26:24.558Z,100.00
2022-11-24T00:28:52.365Z,100.00
2022-11-24T00:31:23.779Z,100.00
2022-11-24T00:33:51.795Z,100.00
2022-11-24T00:36:19.766Z,100.00
2022-11-24T00:38:46.304Z,100.00
2022-11-24T00:41:13.301Z,100.00
2022-11-24T00:43:39.904Z,100.00
2022-11-24T00:46:06.472Z,100.00
2022-11-24T00:48:32.982Z,100.00
2022-11-24T00:51:05.097Z,100.00
2022-11-24T00:53:31.559Z,100.00
2022-11-24T00:55:58.063Z,100.00
2022-11-24T00:58:24.904Z,100.00
2022-11-24T01:00:51.885Z,100.00
2022-11-24T01:03:19.050Z,100.00
2022-11-24T01:05:45.689Z,100.00
2022-11-24T01:08:12.255Z,100.00
2022-11-24T01:10:38.756Z,100.00
2022-11-24T01:13:05.230Z,100.00
2022-11-24T01:15:31.846Z,100.00
2022-11-24T01:17:58.369Z,100.00
2022-11-24T01:20:24.838Z,100.00
2022-11-24T01:22:51.280Z,100.00
2022-11-24T01:25:17.723Z,100.00
2022-11-24T01:27:44.317Z,100.00
2022-11-24T01:30:11.055Z,100.00
2022-11-24T01:32:37.525Z,100.00
2022-11-24T01:35:04.637Z,100.00
2022-11-24T01:37:31.230Z,100.00
2022-11-24T01:39:57.730Z,100.00
2022-11-24T01:42:24.438Z,100.00
2022-11-24T01:45:10.852Z,100.00
2022-11-24T01:47:40.784Z,100.00
2022-11-24T01:50:14.060Z,100.00
2022-11-24T01:52:42.954Z,100.00
2022-11-24T01:55:13.325Z,100.00
2022-11-24T01:57:56.099Z,100.00
2022-11-24T02:00:22.570Z,100.00
2022-11-24T02:02:49.546Z,100.00
2022-11-24T02:05:22.373Z,100.00
2022-11-24T02:07:49.436Z,100.00
2022-11-24T02:10:16.072Z,100.00
2022-11-24T02:12:45.423Z,100.00
2022-11-24T02:15:14.077Z,100.00
2022-11-24T02:17:40.480Z,100.00
2022-11-24T02:20:09.002Z,100.00
2022-11-24T02:22:57.047Z,100.00
2022-11-24T02:25:44.650Z,100.00
2022-11-24T02:28:15.236Z,100.00
2022-11-24T02:30:41.804Z,100.00
2022-11-24T02:33:09.873Z,100.00
2022-11-24T02:35:36.445Z,100.00
2022-11-24T02:38:02.986Z,100.00
2022-11-24T02:40:30.947Z,100.00
2022-11-24T02:43:04.281Z,100.00
2022-11-24T02:45:31.821Z,100.00
2022-11-24T02:47:58.424Z,100.00
2022-11-24T02:50:25.028Z,100.00
2022-11-24T02:52:51.440Z,100.00
2022-11-24T02:55:17.982Z,100.00
2022-11-24T02:57:44.460Z,100.00
2022-11-24T03:00:11.178Z,100.00
2022-11-24T03:02:37.788Z,100.00
2022-11-24T03:05:04.468Z,100.00
2022-11-24T03:07:30.919Z,100.00
2022-11-24T03:09:57.370Z,100.00
2022-11-24T03:12:23.860Z,100.00
2022-11-24T03:14:50.329Z,100.00
2022-11-24T03:17:16.763Z,100.00
2022-11-24T03:19:43.225Z,100.00
2022-11-24T03:22:09.685Z,100.00
2022-11-24T03:24:36.319Z,100.00
2022-11-24T03:27:02.896Z,100.00
2022-11-24T03:29:29.407Z,100.00
2022-11-24T03:31:55.841Z,100.00
2022-11-24T03:34:22.309Z,100.00
2022-11-24T03:36:48.749Z,100.00
2022-11-24T03:39:15.645Z,100.00
2022-11-24T03:41:42.431Z,100.00
2022-11-24T03:44:09.061Z,100.00
2022-11-24T03:46:35.594Z,100.00
2022-11-24T03:49:02.100Z,100.00
2022-11-24T03:51:28.509Z,100.00
2022-11-24T03:53:54.984Z,100.00
2022-11-24T03:56:21.393Z,100.00
2022-11-24T03:58:47.873Z,100.00
2022-11-24T04:01:14.414Z,100.00
2022-11-24T04:03:40.962Z,100.00
2022-11-24T04:06:07.441Z,100.00
2022-11-24T04:08:33.862Z,100.00
2022-11-24T04:11:00.919Z,100.00
2022-11-24T04:13:27.445Z,100.00
2022-11-24T04:15:54.488Z,100.00
2022-11-24T04:18:21.407Z,100.00
2022-11-24T11:41:42.729Z,61.13
2022-11-24T11:44:27.366Z,58.21
2022-11-24T11:46:54.951Z,56.74
2022-11-24T11:49:21.423Z,58.31
2022-11-24T11:51:55.451Z,55.47
2022-11-24T11:54:24.944Z,56.20
2022-11-24T11:57:02.208Z,54.92
2022-11-24T11:59:36.012Z,53.12
2022-11-24T12:02:21.174Z,55.56
2022-11-24T12:04:56.737Z,52.65
2022-11-24T12:07:46.559Z,53.04
2022-11-24T12:10:31.385Z,54.51
2022-11-24T12:13:17.217Z,55.29
2022-11-24T12:15:52.612Z,54.48
2022-11-24T12:18:55.279Z,52.36
2022-11-24T12:21:21.530Z,50.98
2022-11-24T12:24:05.017Z,51.83
2022-11-24T12:26:40.677Z,51.85
2022-11-24T12:29:19.381Z,51.81
2022-11-24T12:31:59.630Z,50.65
2022-11-24T12:34:45.615Z,50.28
2022-11-24T12:37:24.107Z,52.67
2022-11-24T12:40:13.387Z,49.29
2022-11-24T12:42:45.721Z,47.40
2022-11-24T12:45:14.512Z,49.81
2022-11-24T12:47:40.906Z,51.00
2022-11-24T12:50:12.674Z,51.33
2022-11-24T12:52:46.538Z,51.54
2022-11-24T12:55:16.565Z,53.66
2022-11-24T12:57:47.790Z,56.03
2022-11-24T13:00:19.506Z,55.68
2022-11-24T13:02:49.061Z,56.86
2022-11-24T13:05:24.789Z,57.85
2022-11-24T13:08:02.309Z,59.06
2022-11-24T13:10:54.094Z,58.54
2022-11-24T13:13:17.041Z,57.01
2022-11-24T13:16:13.204Z,57.10
2022-11-24T13:19:14.693Z,55.50
2022-11-24T13:21:41.373Z,54.46
2022-11-24T13:24:17.726Z,58.33
2022-11-24T13:26:47.404Z,57.72
2022-11-24T13:29:31.957Z,55.71
2022-11-24T13:32:01.425Z,53.83
2022-11-24T13:34:43.224Z,52.78
2022-11-24T13:37:31.244Z,54.53
2022-11-24T13:40:14.311Z,54.98
2022-11-24T13:42:56.363Z,56.24
2022-11-24T13:45:49.569Z,55.57
2022-11-24T13:48:19.496Z,55.87
2022-11-24T13:50:53.958Z,58.11
2022-11-24T13:53:38.773Z,58.86
2022-11-24T13:56:11.448Z,55.80
2022-11-24T13:58:45.025Z,55.54
2022-11-24T14:01:30.467Z,57.19
2022-11-24T14:04:29.862Z,58.06
2022-11-24T14:06:48.244Z,63.63
2022-11-24T14:09:34.965Z,63.31
2022-11-24T14:12:20.786Z,65.43
2022-11-24T14:15:07.218Z,64.83
2022-11-24T14:17:33.682Z,67.51
2022-11-24T14:20:00.144Z,71.43
2022-11-24T14:22:43.390Z,75.09
2022-11-24T14:25:30.553Z,76.73
2022-11-24T14:27:57.368Z,77.08
2022-11-24T14:30:24.837Z,76.70
2022-11-24T14:32:54.876Z,75.93
2022-11-24T14:35:26.121Z,76.95
2022-11-24T14:37:52.713Z,76.56
2022-11-24T14:40:38.053Z,76.88
2022-11-24T14:43:05.914Z,79.74
2022-11-24T14:45:34.031Z,82.76
2022-11-24T14:48:00.488Z,86.28
2022-11-24T14:50:27.042Z,86.47
2022-11-24T14:52:57.911Z,84.48
2022-11-24T14:55:26.285Z,85.09
2022-11-24T14:57:52.794Z,84.02
2022-11-24T15:00:19.550Z,82.99
2022-11-24T15:02:48.515Z,83.68
2022-11-24T15:05:15.558Z,84.56
2022-11-24T15:07:49.500Z,85.38
2022-11-24T15:10:21.358Z,86.04
2022-11-24T15:12:55.907Z,86.80
2022-11-24T15:15:32.197Z,87.36
2022-11-24T15:17:59.526Z,88.54
2022-11-24T15:20:31.936Z,87.95
2022-11-24T15:23:17.291Z,87.86
2022-11-24T15:25:43.837Z,89.10
2022-11-24T15:28:10.536Z,89.76
2022-11-24T15:30:37.519Z,90.90
2022-11-24T15:33:11.425Z,91.50
2022-11-24T15:35:37.911Z,90.67
2022-11-24T15:38:04.382Z,90.50
2022-11-24T15:40:31.151Z,91.06
2022-11-24T15:43:00.792Z,94.05
2022-11-24T15:45:29.889Z,93.20
2022-11-24T15:47:56.356Z,92.30
2022-11-24T15:50:23.604Z,92.08
2022-11-24T15:52:50.085Z,90.92
2022-11-24T15:55:21.881Z,91.09
2022-11-24T15:57:48.893Z,91.47
2022-11-24T16:00:16.485Z,91.92
2022-11-24T16:02:42.985Z,92.27
2022-11-24T16:05:09.766Z,92.04
2022-11-24T16:07:36.418Z,91.02
2022-11-24T16:10:03.133Z,91.80
2022-11-24T16:12:29.777Z,92.16
2022-11-24T16:14:56.228Z,91.58
2022-11-24T16:17:23.004Z,92.41
2022-11-24T16:19:59.813Z,92.10
2022-11-24T16:22:26.976Z,91.77
2022-11-24T16:24:53.414Z,92.91
2022-11-24T16:27:19.867Z,94.21
2022-11-24T16:29:46.368Z,95.45
2022-11-24T16:32:12.861Z,95.63
2022-11-24T16:34:39.317Z,95.25
2022-11-24T16:37:05.788Z,94.62
2022-11-24T16:39:32.311Z,94.81
2022-11-24T16:41:58.763Z,94.32
2022-11-24T16:44:25.228Z,94.43
2022-11-24T16:46:51.741Z,93.82
2022-11-24T16:49:18.276Z,93.95
2022-11-24T16:51:44.752Z,94.14
2022-11-24T16:54:11.735Z,94.23
2022-11-24T16:56:38.186Z,93.88
2022-11-24T16:59:04.997Z,94.14
2022-11-24T17:01:32.853Z,94.25
2022-11-24T17:03:59.722Z,94.39
2022-11-24T17:06:26.883Z,94.02
2022-11-24T17:08:54.969Z,94.68
2022-11-24T17:11:22.859Z,94.78
2022-11-24T17:13:49.593Z,94.53
2022-11-24T17:16:17.436Z,94.45
2022-11-24T17:18:44.423Z,95.34
2022-11-24T17:21:15.445Z,96.43
2022-11-24T17:23:41.990Z,95.72
2022-11-24T17:26:11.250Z,95.00
2022-11-24T17:28:37.730Z,95.79
2022-11-24T17:31:08.146Z,97.03
2022-11-24T17:33:35.163Z,94.92
2022-11-24T17:36:02.796Z,98.80
2022-11-24T17:38:30.942Z,98.41
2022-11-24T17:40:57.947Z,97.60
2022-11-24T17:43:24.986Z,97.97
2022-11-24T17:45:59.195Z,99.09
2022-11-24T17:48:25.768Z,98.21
2022-11-24T17:51:12.795Z,97.30
2022-11-24T17:53:40.036Z,97.42
2022-11-24T17:56:07.228Z,97.95
2022-11-24T17:58:38.322Z,97.30
2022-11-24T18:01:07.998Z,97.41
2022-11-24T18:03:34.519Z,97.83
2022-11-24T18:06:05.794Z,97.90
2022-11-24T18:08:33.082Z,96.90
2022-11-24T18:11:03.814Z,97.31
2022-11-24T18:13:54.832Z,97.22
2022-11-24T18:16:17.158Z,97.33
2022-11-24T18:18:48.829Z,97.64
2022-11-24T18:21:17.221Z,97.60
2022-11-24T18:23:43.766Z,98.28
2022-11-24T18:26:14.972Z,99.74
2022-11-24T18:28:42.302Z,98.12
2022-11-24T18:31:10.589Z,99.09
2022-11-24T18:33:37.796Z,100.00
2022-11-24T18:36:06.573Z,100.00
2022-11-24T18:38:34.809Z,99.21
2022-11-24T18:41:01.538Z,99.24
2022-11-24T18:43:29.294Z,98.54
2022-11-24T18:45:56.161Z,98.58
2022-11-24T18:48:23.880Z,97.93
2022-11-24T18:50:51.705Z,97.93
2022-11-24T18:53:18.940Z,98.40
2022-11-24T18:56:06.415Z,98.75
2022-11-24T18:58:34.044Z,98.59
2022-11-24T19:01:14.588Z,97.73
2022-11-24T19:03:47.896Z,98.33
2022-11-24T19:06:16.654Z,99.59
2022-11-24T19:08:43.317Z,99.23
2022-11-24T19:11:16.054Z,100.00
2022-11-24T19:13:42.500Z,100.00
2022-11-24T19:16:12.711Z,99.38
2022-11-24T19:18:39.256Z,99.78
2022-11-24T19:21:05.870Z,99.29
2022-11-24T19:23:32.340Z,98.96
2022-11-24T19:26:02.682Z,98.14
2022-11-24T19:28:29.225Z,97.76
2022-11-24T19:31:02.590Z,98.02
2022-11-24T19:33:29.231Z,97.64
2022-11-24T19:36:02.881Z,97.61
2022-11-24T19:38:30.501Z,98.02
2022-11-24T19:41:14.841Z,97.93
2022-11-24T19:43:41.623Z,97.98
2022-11-24T19:46:09.437Z,99.55
2022-11-24T19:48:43.260Z,100.00
2022-11-24T19:51:14.466Z,99.29
2022-11-24T19:53:41.270Z,98.75
2022-11-24T19:56:08.941Z,98.72
2022-11-24T19:58:35.759Z,100.00
2022-11-24T20:01:09.422Z,99.19
2022-11-24T20:03:36.512Z,98.95
2022-11-24T20:06:03.305Z,98.52
2022-11-24T20:08:30.722Z,99.42
2022-11-24T20:11:10.974Z,99.11
2022-11-24T20:13:38.230Z,98.88
2022-11-24T20:16:05.337Z,98.16
2022-11-24T20:18:35.225Z,97.77
2022-11-24T20:21:08.161Z,97.42
2022-11-24T20:23:35.076Z,96.95
2022-11-24T20:26:04.505Z,97.12
2022-11-24T20:28:31.180Z,96.93
2022-11-24T20:31:01.835Z,96.63
2022-11-24T20:33:28.698Z,97.22
2022-11-24T20:35:55.372Z,97.34
2022-11-24T20:38:21.845Z,97.58
2022-11-24T20:40:48.262Z,98.70
2022-11-24T20:43:14.891Z,99.80
2022-11-24T20:45:41.459Z,98.14
2022-11-24T20:48:08.015Z,98.22
2022-11-24T20:50:35.986Z,97.38
2022-11-24T20:53:02.429Z,97.43
2022-11-24T20:55:28.863Z,97.26
2022-11-24T20:57:55.275Z,97.25
2022-11-24T21:00:21.795Z,96.48
2022-11-24T21:02:48.751Z,97.46
2022-11-24T21:05:15.304Z,97.55
2022-11-24T21:07:41.788Z,97.09
2022-11-24T21:10:08.424Z,97.08
2022-11-24T21:12:36.726Z,97.23
2022-11-24T21:15:03.355Z,98.40
2022-11-24T21:17:31.817Z,100.00
2022-11-24T21:20:00.958Z,98.94
2022-11-24T21:22:28.017Z,95.13
2022-11-24T21:24:54.421Z,96.93
2022-11-24T21:27:20.885Z,96.91
2022-11-24T21:29:47.304Z,98.04
2022-11-24T21:32:13.720Z,99.13
2022-11-24T21:34:40.148Z,98.89
2022-11-24T21:37:07.100Z,99.40
2022-11-24T21:39:33.682Z,99.08
2022-11-24T21:42:00.334Z,98.22
2022-11-24T21:44:27.023Z,98.23
2022-11-24T21:46:56.099Z,97.83
2022-11-24T21:49:22.752Z,97.74
2022-11-24T21:51:55.364Z,97.75
2022-11-24T21:54:22.217Z,98.41
2022-11-24T21:56:48.647Z,97.26
2022-11-24T21:59:15.127Z,97.93
2022-11-24T22:01:41.613Z,98.00
2022-11-24T22:04:09.138Z,100.00
2022-11-24T22:06:35.556Z,100.00
2022-11-24T22:09:02.048Z,100.00
2022-11-24T22:11:28.505Z,100.00
2022-11-24T22:13:54.953Z,100.00
2022-11-24T22:16:22.576Z,100.00
2022-11-24T22:18:49.124Z,100.00
2022-11-24T22:21:16.796Z,100.00
2022-11-24T22:23:43.452Z,100.00
2022-11-24T22:26:15.324Z,100.00
2022-11-24T22:28:42.502Z,100.00
2022-11-24T22:31:13.495Z,100.00
2022-11-24T22:33:40.316Z,100.00
2022-11-24T22:36:06.910Z,99.80
2022-11-24T22:38:34.218Z,98.65
2022-11-24T22:41:05.252Z,98.91
2022-11-24T22:43:32.833Z,98.97
2022-11-24T22:46:26.112Z,99.57
2022-11-24T22:48:53.252Z,99.50
2022-11-24T22:51:26.966Z,98.57
2022-11-24T22:53:55.112Z,99.44
2022-11-24T22:56:21.632Z,99.28
2022-11-24T22:58:48.292Z,98.87
2022-11-24T23:01:19.292Z,98.52
2022-11-24T23:03:46.179Z,98.21
2022-11-24T23:06:13.825Z,97.67
2022-11-24T23:08:40.745Z,97.66
2022-11-24T23:11:18.235Z,98.10
2022-11-24T23:13:44.756Z,98.08
2022-11-24T23:16:15.684Z,98.70
2022-11-24T23:18:42.723Z,98.30
2022-11-24T23:21:18.301Z,97.11
2022-11-24T23:23:45.280Z,90.43
2022-11-24T23:26:12.997Z,91.33
2022-11-24T23:28:40.021Z,94.45
2022-11-24T23:31:08.471Z,95.86
2022-11-24T23:33:35.501Z,99.60
2022-11-24T23:36:06.711Z,99.88
2022-11-24T23:38:33.334Z,100.00
2022-11-24T23:41:00.730Z,100.00
2022-11-24T23:43:27.189Z,99.68
2022-11-24T23:45:53.666Z,99.31
2022-11-24T23:48:20.216Z,98.71
2022-11-24T23:50:46.661Z,98.54
2022-11-24T23:53:13.103Z,98.96
2022-11-24T23:55:39.635Z,99.29
2022-11-24T23:58:07.067Z,99.04
